createdAt,value
2022-07-26T00:01:15.674Z,100548.03
2022-07-26T00:03:42.061Z,100537.94
2022-07-26T00:06:08.426Z,100536.44
2022-07-26T00:08:34.781Z,100521.97
2022-07-26T00:11:01.222Z,100529.19
2022-07-26T00:13:33.852Z,100539.28
2022-07-26T00:16:00.275Z,100556.66
2022-07-26T00:18:26.688Z,100560.97
2022-07-26T00:20:53.054Z,100553.03
2022-07-26T00:23:21.893Z,100553.75
2022-07-26T00:25:48.318Z,100547.97
2022-07-26T00:28:14.683Z,100554.47
2022-07-26T00:30:41.296Z,100560.25
2022-07-26T00:33:07.668Z,100564.53
2022-07-26T00:35:34.837Z,100570.34
2022-07-26T00:38:01.192Z,100568.16
2022-07-26T00:40:27.553Z,100576.88
2022-07-26T00:42:53.911Z,100571.13
2022-07-26T00:45:20.277Z,100571.09
2022-07-26T00:47:46.684Z,100569.59
2022-07-26T00:50:14.664Z,100580.50
2022-07-26T00:52:44.498Z,100577.56
2022-07-26T00:55:10.857Z,100575.41
2022-07-26T00:57:37.693Z,100578.22
2022-07-26T01:00:08.080Z,100566.66
2022-07-26T01:02:34.535Z,100571.09
2022-07-26T01:05:00.978Z,100563.81
2022-07-26T01:07:27.563Z,100573.94
2022-07-26T01:09:53.950Z,100582.63
2022-07-26T01:12:20.364Z,100581.19
2022-07-26T01:14:46.739Z,100584.00
2022-07-26T01:17:16.542Z,100572.44
2022-07-26T01:19:42.992Z,100576.78
2022-07-26T01:22:14.204Z,100590.50
2022-07-26T01:24:41.176Z,100601.38
2022-07-26T01:27:07.752Z,100603.47
2022-07-26T01:29:35.409Z,100608.53
2022-07-26T01:32:04.054Z,100596.25
2022-07-26T01:34:30.484Z,100589.69
2022-07-26T01:36:56.956Z,100586.78
2022-07-26T01:39:23.404Z,100582.44
2022-07-26T01:41:49.773Z,100589.66
2022-07-26T01:44:16.133Z,100597.66
2022-07-26T01:46:42.520Z,100591.13
2022-07-26T01:49:09.303Z,100598.34
2022-07-26T01:51:35.812Z,100608.44
2022-07-26T01:54:02.291Z,100613.47
2022-07-26T01:56:28.645Z,100616.38
2022-07-26T01:58:55.015Z,100614.22
2022-07-26T02:01:38.772Z,100618.53
2022-07-26T02:04:06.834Z,100612.81
2022-07-26T02:06:33.817Z,100608.44
2022-07-26T02:09:00.846Z,100612.75
2022-07-26T02:11:28.363Z,100606.22
2022-07-26T02:13:54.714Z,100611.94
2022-07-26T02:16:21.121Z,100608.31
2022-07-26T02:18:47.531Z,100609.81
2022-07-26T02:21:13.897Z,100606.84
2022-07-26T02:23:41.646Z,100602.53
2022-07-26T02:26:08.195Z,100606.84
2022-07-26T02:28:34.551Z,100600.34
2022-07-26T02:31:00.998Z,100595.97
2022-07-26T02:33:27.556Z,100603.91
2022-07-26T02:35:53.937Z,100595.91
2022-07-26T02:38:20.314Z,100601.75
2022-07-26T02:40:46.738Z,100601.75
2022-07-26T02:43:13.090Z,100610.38
2022-07-26T02:45:39.500Z,100602.41
2022-07-26T02:48:05.871Z,100603.84
2022-07-26T02:50:32.258Z,100599.53
2022-07-26T02:52:58.661Z,100608.19
2022-07-26T02:55:42.687Z,100600.22
2022-07-26T02:58:09.042Z,100602.34
2022-07-26T03:00:35.430Z,100600.91
2022-07-26T03:03:01.920Z,100605.94
2022-07-26T03:05:28.338Z,100605.22
2022-07-26T03:07:54.689Z,100602.34
2022-07-26T03:10:21.058Z,100600.84
2022-07-26T03:12:47.441Z,100602.28
2022-07-26T03:15:13.825Z,100598.66
2022-07-26T03:17:40.218Z,100604.44
2022-07-26T03:20:06.774Z,100598.66
2022-07-26T03:22:33.136Z,100599.38
2022-07-26T03:24:59.547Z,100597.88
2022-07-26T03:27:25.963Z,100598.59
2022-07-26T03:29:52.322Z,100605.03
2022-07-26T03:32:18.682Z,100603.59
2022-07-26T03:34:45.053Z,100610.09
2022-07-26T03:37:11.426Z,100610.78
2022-07-26T03:39:38.234Z,100606.41
2022-07-26T03:42:04.602Z,100608.63
2022-07-26T03:44:30.962Z,100617.22
2022-07-26T03:46:57.368Z,100610.72
2022-07-26T03:49:23.828Z,100617.94
2022-07-26T03:51:50.242Z,100623.66
2022-07-26T03:54:16.598Z,100620.03
2022-07-26T03:56:43.134Z,100616.38
2022-07-26T03:59:09.803Z,100616.34
2022-07-26T04:01:36.619Z,100619.97
2022-07-26T04:04:03.030Z,100612.03
2022-07-26T04:06:29.406Z,100617.81
2022-07-26T04:08:56.424Z,100620.72
2022-07-26T04:11:22.791Z,100619.25
2022-07-26T04:13:53.127Z,100623.53
2022-07-26T04:16:19.503Z,100620.66
2022-07-26T04:18:45.898Z,100622.06
2022-07-26T04:21:12.301Z,100622.81
2022-07-26T04:23:38.663Z,100616.88
2022-07-26T04:26:05.067Z,100626.41
2022-07-26T04:28:31.436Z,100615.56
2022-07-26T04:30:57.991Z,100629.78
2022-07-26T04:33:24.407Z,100625.50
2022-07-26T04:35:50.940Z,100620.91
2022-07-26T04:38:17.318Z,100613.13
2022-07-26T04:40:43.707Z,100621.84
2022-07-26T04:43:15.520Z,100619.84
2022-07-26T04:45:42.567Z,100625.44
2022-07-26T04:48:08.973Z,100619.91
2022-07-26T04:50:35.339Z,100628.63
2022-07-26T04:53:04.470Z,100623.81
2022-07-26T04:55:30.842Z,100630.66
2022-07-26T04:57:57.211Z,100624.88
2022-07-26T05:00:24.967Z,100631.19
2022-07-26T05:02:52.791Z,100633.16
2022-07-26T05:05:19.216Z,100638.44
2022-07-26T05:07:46.010Z,100635.22
2022-07-26T05:10:12.576Z,100630.91
2022-07-26T05:12:38.943Z,100632.66
2022-07-26T05:15:05.639Z,100637.03
2022-07-26T05:17:40.086Z,100637.22
2022-07-26T05:20:07.170Z,100637.16
2022-07-26T05:22:33.980Z,100640.84
2022-07-26T05:25:00.341Z,100639.94
2022-07-26T05:27:26.865Z,100644.09
2022-07-26T05:29:53.476Z,100640.16
2022-07-26T05:32:19.857Z,100650.63
2022-07-26T05:34:46.225Z,100651.47
2022-07-26T05:37:12.685Z,100650.13
2022-07-26T05:39:39.051Z,100652.69
2022-07-26T05:42:05.422Z,100662.41
2022-07-26T05:44:31.774Z,100656.38
2022-07-26T05:46:58.133Z,100661.34
2022-07-26T05:49:25.979Z,100663.53
2022-07-26T05:51:52.520Z,100672.13
2022-07-26T05:54:22.863Z,100672.50
2022-07-26T05:56:49.475Z,100669.13
2022-07-26T05:59:15.834Z,100676.34
2022-07-26T06:01:42.194Z,100664.13
2022-07-26T06:04:09.503Z,100673.22
2022-07-26T06:06:36.225Z,100666.34
2022-07-26T06:09:02.587Z,100673.22
2022-07-26T06:11:29.014Z,100670.69
2022-07-26T06:13:56.758Z,100663.16
2022-07-26T06:16:23.285Z,100674.44
2022-07-26T06:18:50.602Z,100683.63
2022-07-26T06:21:16.962Z,100680.81
2022-07-26T06:23:43.319Z,100683.63
2022-07-26T06:26:09.686Z,100681.94
2022-07-26T06:28:37.395Z,100681.47
2022-07-26T06:31:03.769Z,100688.25
2022-07-26T06:33:30.134Z,100685.72
2022-07-26T06:35:56.501Z,100684.84
2022-07-26T06:38:22.858Z,100682.34
2022-07-26T06:40:49.215Z,100691.78
2022-07-26T06:43:15.568Z,100690.25
2022-07-26T06:45:42.238Z,100687.03
2022-07-26T06:48:08.616Z,100692.28
2022-07-26T06:50:34.991Z,100686.22
2022-07-26T06:53:01.364Z,100689.63
2022-07-26T06:55:27.726Z,100688.47
2022-07-26T06:57:54.068Z,100691.88
2022-07-26T07:00:20.448Z,100690.41
2022-07-26T07:02:46.804Z,100690.69
2022-07-26T07:05:13.279Z,100692.75
2022-07-26T07:07:39.680Z,100701.78
2022-07-26T07:10:08.589Z,100698.72
2022-07-26T07:12:35.076Z,100708.31
2022-07-26T07:15:01.425Z,100708.25
2022-07-26T07:17:27.782Z,100708.75
2022-07-26T07:19:54.133Z,100705.38
2022-07-26T07:22:20.504Z,100710.53
2022-07-26T07:24:46.858Z,100703.13
2022-07-26T07:27:14.965Z,100700.09
2022-07-26T07:29:43.286Z,100709.97
2022-07-26T07:32:18.034Z,100719.72
2022-07-26T07:34:45.805Z,100712.56
2022-07-26T07:37:13.967Z,100707.22
2022-07-26T07:39:40.364Z,100708.53
2022-07-26T07:42:07.832Z,100702.63
2022-07-26T07:44:34.199Z,100700.66
2022-07-26T07:47:00.758Z,100700.75
2022-07-26T07:49:27.220Z,100704.28
2022-07-26T07:51:53.665Z,100702.81
2022-07-26T07:54:20.207Z,100703.75
2022-07-26T07:56:48.811Z,100698.44
2022-07-26T07:59:15.197Z,100701.56
2022-07-26T08:01:41.582Z,100702.34
2022-07-26T08:04:10.751Z,100699.53
2022-07-26T08:06:37.174Z,100712.34
2022-07-26T08:09:03.872Z,100706.88
2022-07-26T08:11:32.115Z,100708.66
2022-07-26T08:14:00.371Z,100705.63
2022-07-26T08:16:26.845Z,100707.13
2022-07-26T08:18:57.745Z,100702.03
2022-07-26T08:21:24.477Z,100706.94
2022-07-26T08:23:53.837Z,100704.75
2022-07-26T08:26:20.193Z,100696.72
2022-07-26T08:28:48.088Z,100699.88
2022-07-26T08:31:14.761Z,100705.88
2022-07-26T08:33:45.874Z,100708.16
2022-07-26T08:36:12.988Z,100708.38
2022-07-26T08:38:39.382Z,100707.13
2022-07-26T08:41:05.745Z,100708.16
2022-07-26T08:43:32.102Z,100709.63
2022-07-26T08:46:17.055Z,100710.84
2022-07-26T08:48:43.473Z,100704.75
2022-07-26T08:51:11.344Z,100713.97
2022-07-26T08:53:37.970Z,100712.75
2022-07-26T08:56:07.209Z,100725.53
2022-07-26T08:58:35.159Z,100725.88
2022-07-26T09:01:05.486Z,100724.28
2022-07-26T09:03:32.096Z,100728.25
2022-07-26T09:06:10.288Z,100725.00
2022-07-26T09:08:37.159Z,100728.19
2022-07-26T09:11:09.792Z,100727.81
2022-07-26T09:13:52.089Z,100731.91
2022-07-26T09:16:19.151Z,100730.19
2022-07-26T09:18:45.636Z,100738.47
2022-07-26T09:21:30.614Z,100732.91
2022-07-26T09:23:57.018Z,100746.13
2022-07-26T09:26:24.976Z,100735.81
2022-07-26T09:29:04.520Z,100724.78
2022-07-26T09:31:31.062Z,100719.19
2022-07-26T09:33:58.907Z,100737.00
2022-07-26T09:36:25.312Z,100726.75
2022-07-26T09:38:52.384Z,100734.94
2022-07-26T09:41:19.279Z,100726.44
2022-07-26T09:43:49.078Z,100732.78
2022-07-26T09:46:18.318Z,100725.06
2022-07-26T09:49:14.619Z,100736.31
2022-07-26T09:51:34.822Z,100738.19
2022-07-26T09:54:01.716Z,100737.19
2022-07-26T09:56:41.187Z,100740.25
2022-07-26T09:59:07.543Z,100751.31
2022-07-26T10:01:34.000Z,100748.69
2022-07-26T10:04:00.390Z,100744.03
2022-07-26T10:06:30.351Z,100738.38
2022-07-26T10:08:57.025Z,100744.84
2022-07-26T10:11:23.387Z,100735.34
2022-07-26T10:13:49.805Z,100747.34
2022-07-26T10:16:28.665Z,100742.56
2022-07-26T10:18:57.776Z,100749.97
2022-07-26T10:21:30.227Z,100749.31
2022-07-26T10:23:57.558Z,100741.91
2022-07-26T10:26:33.058Z,100743.06
2022-07-26T10:29:17.816Z,100732.91
2022-07-26T10:31:47.364Z,100738.81
2022-07-26T10:34:32.934Z,100731.56
2022-07-26T10:36:59.886Z,100738.25
2022-07-26T10:39:26.261Z,100732.91
2022-07-26T10:42:00.367Z,100738.25
2022-07-26T10:44:30.507Z,100726.88
2022-07-26T10:46:57.778Z,100735.28
2022-07-26T10:49:31.031Z,100745.34
2022-07-26T10:52:10.430Z,100752.44
2022-07-26T10:54:55.520Z,100753.53
2022-07-26T10:57:22.130Z,100743.88
2022-07-26T10:59:55.778Z,100733.81
2022-07-26T11:02:32.157Z,100737.75
2022-07-26T11:04:59.352Z,100736.19
2022-07-26T11:07:25.816Z,100735.31
2022-07-26T11:09:55.013Z,100724.63
2022-07-26T11:12:24.197Z,100716.69
2022-07-26T11:14:50.758Z,100728.38
2022-07-26T11:17:46.263Z,100719.47
2022-07-26T11:20:12.626Z,100737.63
2022-07-26T11:22:38.998Z,100739.66
2022-07-26T11:25:05.519Z,100738.63
2022-07-26T11:27:31.887Z,100735.63
2022-07-26T11:30:03.029Z,100742.09
2022-07-26T11:32:29.446Z,100745.50
2022-07-26T11:35:02.279Z,100748.22
2022-07-26T11:37:28.736Z,100751.84
2022-07-26T11:39:55.098Z,100745.88
2022-07-26T11:42:22.085Z,100737.47
2022-07-26T11:44:48.699Z,100754.06
2022-07-26T11:47:24.450Z,100755.06
2022-07-26T11:50:11.646Z,100747.50
2022-07-26T11:52:38.477Z,100757.22
2022-07-26T11:55:05.009Z,100773.44
2022-07-26T11:57:31.989Z,100781.44
2022-07-26T11:59:58.909Z,100800.41
2022-07-26T12:02:25.402Z,100829.44
2022-07-26T12:04:56.803Z,100838.00
2022-07-26T12:07:23.389Z,100837.84
2022-07-26T12:09:50.436Z,100853.06
2022-07-26T12:12:20.523Z,100863.69
2022-07-26T12:14:55.286Z,100862.19
2022-07-26T12:17:21.658Z,100870.50
2022-07-26T12:19:48.025Z,100878.94
2022-07-26T12:22:15.040Z,100884.25
2022-07-26T12:24:45.583Z,100882.97
2022-07-26T12:27:12.958Z,100882.00
2022-07-26T12:29:39.620Z,100885.41
2022-07-26T12:32:12.131Z,100891.38
2022-07-26T12:34:39.238Z,100890.84
2022-07-26T12:37:06.444Z,100896.66
2022-07-26T12:39:32.817Z,100889.16
2022-07-26T12:41:59.179Z,100893.31
2022-07-26T12:44:25.579Z,100890.47
2022-07-26T12:46:52.105Z,100890.00
2022-07-26T12:49:18.669Z,100896.53
2022-07-26T12:51:45.066Z,100883.41
2022-07-26T12:54:11.730Z,100892.38
2022-07-26T12:56:38.319Z,100887.63
2022-07-26T12:59:05.727Z,100890.53
2022-07-26T13:01:32.156Z,100894.22
2022-07-26T13:03:59.744Z,100896.78
2022-07-26T13:06:26.167Z,100899.41
2022-07-26T13:08:52.532Z,100901.06
2022-07-26T13:11:18.970Z,100898.94
2022-07-26T13:13:45.323Z,100898.97
2022-07-26T13:16:12.437Z,100896.66
2022-07-26T13:18:38.930Z,100910.34
2022-07-26T13:21:05.850Z,100899.47
2022-07-26T13:23:32.279Z,100893.56
2022-07-26T13:26:01.441Z,100893.28
2022-07-26T13:28:29.807Z,100896.78
2022-07-26T13:30:56.252Z,100887.97
2022-07-26T13:33:22.708Z,100884.34
2022-07-26T13:35:50.148Z,100888.69
2022-07-26T13:38:19.100Z,100887.19
2022-07-26T13:40:45.531Z,100880.59
2022-07-26T13:43:11.884Z,100885.00
2022-07-26T13:45:38.368Z,100881.66
2022-07-26T13:48:04.861Z,100881.25
2022-07-26T13:50:31.225Z,100893.69
2022-07-26T13:52:57.670Z,100886.53
2022-07-26T13:55:24.255Z,100898.22
2022-07-26T13:57:56.335Z,100883.81
2022-07-26T14:00:24.401Z,100891.03
2022-07-26T14:02:50.837Z,100898.34
2022-07-26T14:05:17.270Z,100891.09
2022-07-26T14:07:43.682Z,100900.59
2022-07-26T14:10:10.045Z,100901.97
2022-07-26T14:12:37.993Z,100900.53
2022-07-26T14:15:09.330Z,100892.69
2022-07-26T14:17:38.497Z,100897.09
2022-07-26T14:20:05.199Z,100897.09
2022-07-26T14:22:31.571Z,100888.47
2022-07-26T14:24:57.920Z,100903.75
2022-07-26T14:27:24.284Z,100895.13
2022-07-26T14:29:50.658Z,100893.00
2022-07-26T14:32:21.488Z,100903.25
2022-07-26T14:34:48.651Z,100900.28
2022-07-26T14:37:42.764Z,100910.38
2022-07-26T14:40:01.436Z,100907.97
2022-07-26T14:42:27.849Z,100903.53
2022-07-26T14:44:54.220Z,100908.63
2022-07-26T14:47:20.595Z,100906.19
2022-07-26T14:49:47.001Z,100908.66
2022-07-26T14:52:13.461Z,100909.41
2022-07-26T14:54:39.837Z,100915.19
2022-07-26T14:57:06.338Z,100909.41
2022-07-26T14:59:34.322Z,100911.63
2022-07-26T15:02:05.469Z,100910.25
2022-07-26T15:04:32.488Z,100906.69
2022-07-26T15:06:59.631Z,100911.09
2022-07-26T15:09:26.282Z,100909.56
2022-07-26T15:11:53.126Z,100910.97
2022-07-26T15:14:19.751Z,100910.31
2022-07-26T15:16:46.470Z,100915.41
2022-07-26T15:19:13.097Z,100915.63
2022-07-26T15:21:39.608Z,100901.28
2022-07-26T15:24:06.271Z,100912.06
2022-07-26T15:26:32.670Z,100912.94
2022-07-26T15:28:59.059Z,100912.50
2022-07-26T15:31:37.368Z,100916.16
2022-07-26T15:34:04.426Z,100912.88
2022-07-26T15:36:30.914Z,100912.19
2022-07-26T15:39:01.997Z,100914.34
2022-07-26T15:41:40.933Z,100905.66
2022-07-26T15:44:07.431Z,100911.25
2022-07-26T15:46:33.949Z,100912.59
2022-07-26T15:49:00.383Z,100905.28
2022-07-26T15:51:26.784Z,100907.53
2022-07-26T15:53:53.155Z,100903.72
2022-07-26T15:56:19.507Z,100908.19
2022-07-26T15:58:45.879Z,100905.41
2022-07-26T16:01:13.149Z,100902.56
2022-07-26T16:03:39.551Z,100911.94
2022-07-26T16:06:06.301Z,100899.59
2022-07-26T16:08:32.732Z,100905.28
2022-07-26T16:10:59.110Z,100903.19
2022-07-26T16:13:25.484Z,100906.88
2022-07-26T16:15:51.856Z,100909.09
2022-07-26T16:18:18.218Z,100912.66
2022-07-26T16:20:44.575Z,100908.34
2022-07-26T16:23:10.942Z,100909.03
2022-07-26T16:25:37.301Z,100914.66
2022-07-26T16:28:03.727Z,100906.69
2022-07-26T16:30:30.092Z,100910.81
2022-07-26T16:32:56.517Z,100907.97
2022-07-26T16:35:22.910Z,100907.41
2022-07-26T16:37:50.172Z,100911.94
2022-07-26T16:40:16.535Z,100911.34
2022-07-26T16:42:42.931Z,100913.13
2022-07-26T16:45:09.291Z,100914.47
2022-07-26T16:47:35.898Z,100915.97
2022-07-26T16:50:02.323Z,100917.19
2022-07-26T16:52:28.679Z,100928.78
2022-07-26T16:54:55.031Z,100924.16
2022-07-26T16:57:21.377Z,100918.22
2022-07-26T16:59:47.766Z,100921.25
2022-07-26T17:02:14.159Z,100921.25
2022-07-26T17:04:40.578Z,100916.34
2022-07-26T17:09:53.743Z,100919.94
2022-07-26T17:12:20.370Z,100918.44
2022-07-26T17:14:46.733Z,100925.00
2022-07-26T17:17:13.083Z,100919.22
2022-07-26T17:19:39.439Z,100922.84
2022-07-26T17:22:05.795Z,100921.41
2022-07-26T17:24:32.246Z,100922.84
2022-07-26T17:26:58.595Z,100926.47
2022-07-26T17:29:24.973Z,100931.53
2022-07-26T17:31:51.346Z,100929.31
2022-07-26T17:34:17.705Z,100928.56
2022-07-26T17:36:44.848Z,100925.72
2022-07-26T17:39:15.655Z,100932.94
2022-07-26T17:41:44.988Z,100940.16
2022-07-26T17:44:14.008Z,100940.22
2022-07-26T17:46:40.450Z,100938.78
2022-07-26T17:49:06.929Z,100944.56
2022-07-26T17:51:33.362Z,100935.22
2022-07-26T17:53:59.813Z,100941.75
2022-07-26T17:56:26.271Z,100938.84
2022-07-26T17:58:52.661Z,100933.13
2022-07-26T18:01:19.116Z,100943.25
2022-07-26T18:03:45.563Z,100946.06
2022-07-26T18:06:11.991Z,100940.16
2022-07-26T18:08:38.498Z,100944.56
2022-07-26T18:11:05.307Z,100947.41
2022-07-26T18:13:31.672Z,100950.31
2022-07-26T18:15:59.306Z,100946.69
2022-07-26T18:18:28.292Z,100948.84
2022-07-26T18:20:54.823Z,100951.69
2022-07-26T18:23:21.190Z,100952.34
2022-07-26T18:25:47.540Z,100953.03
2022-07-26T18:28:13.902Z,100953.03
2022-07-26T18:30:40.275Z,100952.28
2022-07-26T18:33:08.730Z,100954.38
2022-07-26T18:35:35.087Z,100961.59
2022-07-26T18:38:01.835Z,100962.84
2022-07-26T18:40:28.471Z,100960.34
2022-07-26T18:42:54.822Z,100963.94
2022-07-26T18:45:21.210Z,100961.19
2022-07-26T18:47:47.807Z,100967.06
2022-07-26T18:50:17.103Z,100974.44
2022-07-26T18:52:43.744Z,100973.44
2022-07-26T18:55:12.199Z,100972.44
2022-07-26T18:57:39.196Z,100980.78
2022-07-26T19:00:06.649Z,100983.63
2022-07-26T19:02:33.015Z,100984.47
2022-07-26T19:04:59.375Z,100991.31
2022-07-26T19:07:25.771Z,100992.53
2022-07-26T19:09:57.911Z,100993.84
2022-07-26T19:12:25.009Z,100993.59
2022-07-26T19:14:51.366Z,100994.91
2022-07-26T19:17:17.788Z,100991.97
2022-07-26T19:19:44.142Z,100997.88
2022-07-26T19:22:10.549Z,100995.13
2022-07-26T19:24:42.926Z,100998.09
2022-07-26T19:27:09.476Z,100995.19
2022-07-26T19:29:36.408Z,101003.06
2022-07-26T19:32:02.759Z,101003.06
2022-07-26T19:34:29.147Z,101006.63
2022-07-26T19:36:55.511Z,101006.63
2022-07-26T19:39:21.919Z,101013.09
2022-07-26T19:41:48.292Z,101008.00
2022-07-26T19:44:14.944Z,101010.81
2022-07-26T19:46:41.369Z,101007.19
2022-07-26T19:49:09.727Z,101022.41
2022-07-26T19:51:36.541Z,101016.53
2022-07-26T19:54:02.889Z,101030.28
2022-07-26T19:56:29.252Z,101029.50
2022-07-26T19:58:55.818Z,101038.88
2022-07-26T20:01:23.111Z,101036.72
2022-07-26T20:03:49.649Z,101038.88
2022-07-26T20:06:16.022Z,101038.16
2022-07-26T20:08:42.438Z,101046.81
2022-07-26T20:11:08.819Z,101046.75
2022-07-26T20:13:35.318Z,101043.09
2022-07-26T20:16:02.134Z,101045.25
2022-07-26T20:18:30.687Z,101040.91
2022-07-26T20:20:57.079Z,101053.88
2022-07-26T20:23:23.538Z,101050.25
2022-07-26T20:25:49.919Z,101053.78
2022-07-26T20:28:16.292Z,101054.56
2022-07-26T20:30:42.735Z,101061.00
2022-07-26T20:33:09.220Z,101063.25
2022-07-26T20:35:35.854Z,101065.38
2022-07-26T20:38:02.233Z,101062.47
2022-07-26T20:40:28.930Z,101066.78
2022-07-26T20:42:55.495Z,101061.75
2022-07-26T20:45:25.137Z,101058.78
2022-07-26T20:47:51.910Z,101068.19
2022-07-26T20:50:18.311Z,101063.84
2022-07-26T20:52:44.662Z,101081.19
2022-07-26T20:55:11.153Z,101073.94
2022-07-26T20:57:37.515Z,101073.94
2022-07-26T21:00:06.334Z,101076.81
2022-07-26T21:02:32.754Z,101075.25
2022-07-26T21:04:59.179Z,101082.53
2022-07-26T21:07:58.498Z,101085.44
2022-07-26T21:10:12.843Z,101089.78
2022-07-26T21:12:39.229Z,101096.25
2022-07-26T21:15:06.258Z,101099.81
2022-07-26T21:17:32.746Z,101098.31
2022-07-26T21:20:00.995Z,101098.31
2022-07-26T21:22:28.536Z,101100.47
2022-07-26T21:24:54.895Z,101106.94
2022-07-26T21:27:21.255Z,101112.72
2022-07-26T21:29:47.658Z,101104.03
2022-07-26T21:32:14.021Z,101111.19
2022-07-26T21:34:40.442Z,101118.47
2022-07-26T21:37:06.964Z,101129.25
2022-07-26T21:39:33.339Z,101119.94
2022-07-26T21:41:59.729Z,101124.25
2022-07-26T21:44:26.782Z,101132.91
2022-07-26T21:46:54.906Z,101127.13
2022-07-26T21:49:21.379Z,101135.06
2022-07-26T21:51:47.774Z,101138.63
2022-07-26T21:54:14.146Z,101132.84
2022-07-26T21:56:40.791Z,101142.91
2022-07-26T21:59:07.165Z,101146.53
2022-07-26T22:01:33.617Z,101148.72
2022-07-26T22:04:00.050Z,101147.97
2022-07-26T22:06:26.428Z,101151.66
2022-07-26T22:08:52.786Z,101156.00
2022-07-26T22:11:19.156Z,101156.00
2022-07-26T22:13:46.292Z,101158.81
2022-07-26T22:16:13.869Z,101154.50
2022-07-26T22:18:40.326Z,101153.03
2022-07-26T22:21:06.679Z,101163.16
2022-07-26T22:23:33.422Z,101158.81
2022-07-26T22:26:01.641Z,101157.22
2022-07-26T22:28:28.226Z,101163.84
2022-07-26T22:30:54.749Z,101158.72
2022-07-26T22:33:21.128Z,101160.88
2022-07-26T22:35:47.478Z,101158.81
2022-07-26T22:38:13.845Z,101166.78
2022-07-26T22:40:40.494Z,101163.91
2022-07-26T22:43:06.877Z,101174.06
2022-07-26T22:45:33.768Z,101171.84
2022-07-26T22:48:01.148Z,101169.03
2022-07-26T22:50:27.910Z,101182.09
2022-07-26T22:52:54.280Z,101183.56
2022-07-26T22:55:20.645Z,101182.09
2022-07-26T22:57:47.059Z,101183.56
2022-07-26T23:00:14.128Z,101192.25
2022-07-26T23:02:40.496Z,101200.94
2022-07-26T23:05:07.068Z,101194.41
2022-07-26T23:07:35.115Z,101188.63
2022-07-26T23:10:01.679Z,101192.25
2022-07-26T23:12:28.120Z,101195.16
2022-07-26T23:14:54.490Z,101189.34
2022-07-26T23:17:20.846Z,101189.34
2022-07-26T23:19:47.228Z,101182.84
2022-07-26T23:22:13.581Z,101179.22
2022-07-26T23:24:41.177Z,101194.41
2022-07-26T23:27:09.974Z,101191.50
2022-07-26T23:29:36.347Z,101193.66
2022-07-26T23:32:02.728Z,101194.41
2022-07-26T23:34:29.091Z,101187.88
2022-07-26T23:36:55.453Z,101187.88
2022-07-26T23:39:22.434Z,101192.16
2022-07-26T23:41:48.783Z,101195.72
2022-07-26T23:44:15.134Z,101186.38
2022-07-26T23:46:41.525Z,101194.31
2022-07-26T23:49:08.142Z,101192.16
2022-07-26T23:51:34.739Z,101192.91
2022-07-26T23:54:01.108Z,101182.09
2022-07-26T23:56:27.456Z,101176.31
2022-07-26T23:58:53.827Z,101180.59
